createdAt,value
2019-02-25T00:01:57.101Z,98893.33
2019-02-25T00:04:27.149Z,98885.35
2019-02-25T00:07:00.392Z,98875.72
2019-02-25T00:09:31.820Z,98881.88
2019-02-25T00:12:10.507Z,98889.17
2019-02-25T00:14:45.284Z,98891.02
2019-02-25T00:17:21.367Z,98891.77
2019-02-25T00:19:54.042Z,98888.08
2019-02-25T00:22:24.320Z,98885.48
2019-02-25T00:24:54.620Z,98884.38
2019-02-25T00:27:26.864Z,98898.70
2019-02-25T00:29:56.660Z,98899.87
2019-02-25T00:32:31.590Z,98911.80
2019-02-25T00:35:01.344Z,98901.09
2019-02-25T00:37:32.097Z,98899.00
2019-02-25T00:40:02.143Z,98894.48
2019-02-25T00:42:33.773Z,98891.38
2019-02-25T00:45:06.127Z,98893.84
2019-02-25T00:47:38.179Z,98893.41
2019-02-25T00:50:11.140Z,98894.57
2019-02-25T00:52:42.476Z,98893.16
2019-02-25T00:55:12.548Z,98884.16
2019-02-25T00:57:42.383Z,98871.41
2019-02-25T01:00:20.019Z,98869.92
2019-02-25T01:02:53.775Z,98879.81
2019-02-25T01:05:25.481Z,98893.48
2019-02-25T01:07:55.237Z,98889.89
2019-02-25T01:10:25.050Z,98898.22
2019-02-25T01:12:55.753Z,98903.70
2019-02-25T01:15:30.155Z,98901.05
2019-02-25T01:18:04.450Z,98893.41
2019-02-25T01:20:36.079Z,98889.06
2019-02-25T01:23:07.372Z,98896.78
2019-02-25T01:25:39.477Z,98891.84
2019-02-25T01:28:09.899Z,98896.92
2019-02-25T01:30:42.826Z,98892.39
2019-02-25T01:33:14.317Z,98879.03
2019-02-25T01:35:44.249Z,98877.91
2019-02-25T01:38:15.985Z,98871.88
2019-02-25T01:40:46.274Z,98869.86
2019-02-25T01:43:17.818Z,98876.05
2019-02-25T01:45:47.776Z,98871.81
2019-02-25T01:48:17.690Z,98863.52
2019-02-25T01:50:47.914Z,98875.83
2019-02-25T01:53:19.716Z,98876.97
2019-02-25T01:55:51.670Z,98876.89
2019-02-25T01:58:23.570Z,98879.07
2019-02-25T02:00:53.350Z,98877.32
2019-02-25T02:03:23.162Z,98876.34
2019-02-25T02:05:52.916Z,98875.34
2019-02-25T02:08:26.267Z,98876.02
2019-02-25T02:10:56.347Z,98875.05
2019-02-25T02:13:28.237Z,98878.70
2019-02-25T02:15:57.972Z,98871.44
2019-02-25T02:18:29.568Z,98879.41
2019-02-25T02:20:59.337Z,98879.71
2019-02-25T02:23:29.081Z,98884.73
2019-02-25T02:25:58.903Z,98884.08
2019-02-25T02:28:28.668Z,98878.41
2019-02-25T02:30:58.434Z,98876.62
2019-02-25T02:33:28.244Z,98886.06
2019-02-25T02:35:58.942Z,98890.23
2019-02-25T02:38:32.716Z,98893.66
2019-02-25T02:41:07.127Z,98892.67
2019-02-25T02:43:38.114Z,98890.56
2019-02-25T02:46:22.887Z,98887.73
2019-02-25T02:48:55.995Z,98892.45
2019-02-25T02:51:29.186Z,98889.14
2019-02-25T02:54:01.117Z,98886.11
2019-02-25T02:56:33.196Z,98890.09
2019-02-25T02:59:10.307Z,98891.27
2019-02-25T03:01:42.051Z,98892.13
2019-02-25T03:04:11.850Z,98892.25
2019-02-25T03:06:48.815Z,98892.25
2019-02-25T03:09:18.625Z,98895.23
2019-02-25T03:11:53.544Z,98895.72
2019-02-25T03:14:25.338Z,98890.78
2019-02-25T03:17:04.243Z,98893.18
2019-02-25T03:19:37.474Z,98895.48
2019-02-25T03:22:15.996Z,98886.48
2019-02-25T03:24:45.972Z,98889.80
2019-02-25T03:27:21.190Z,98879.98
2019-02-25T03:29:51.848Z,98897.49
2019-02-25T03:32:21.598Z,98896.70
2019-02-25T03:34:59.795Z,98899.14
2019-02-25T03:37:29.565Z,98887.49
2019-02-25T03:40:01.137Z,98887.49
2019-02-25T03:42:33.334Z,98879.81
2019-02-25T03:45:07.386Z,98873.45
2019-02-25T03:47:37.145Z,98869.14
2019-02-25T03:50:07.851Z,98863.33
2019-02-25T03:52:38.662Z,98858.20
2019-02-25T03:55:11.145Z,98853.53
2019-02-25T03:57:44.020Z,98848.56
2019-02-25T04:00:16.485Z,98857.87
2019-02-25T04:02:55.174Z,98846.89
2019-02-25T04:05:32.747Z,98846.14
2019-02-25T04:08:02.535Z,98845.43
2019-02-25T04:10:32.294Z,98847.11
2019-02-25T04:13:02.108Z,98855.09
2019-02-25T04:15:37.499Z,98863.88
2019-02-25T04:18:09.556Z,98868.34
2019-02-25T04:20:39.385Z,98859.08
2019-02-25T04:23:09.698Z,98855.95
2019-02-25T04:25:39.504Z,98857.12
2019-02-25T04:28:14.091Z,98860.30
2019-02-25T04:30:43.846Z,98863.09
2019-02-25T04:33:15.956Z,98860.41
2019-02-25T04:35:45.718Z,98870.16
2019-02-25T04:38:15.554Z,98870.86
2019-02-25T04:40:48.936Z,98862.86
2019-02-25T04:43:20.362Z,98859.61
2019-02-25T04:45:53.881Z,98862.78
2019-02-25T04:48:23.881Z,98862.18
2019-02-25T04:50:57.403Z,98877.47
2019-02-25T04:53:29.114Z,98872.72
2019-02-25T04:56:01.308Z,98874.81
2019-02-25T04:58:31.100Z,98876.26
2019-02-25T05:01:08.049Z,98880.36
2019-02-25T05:03:40.766Z,98876.34
2019-02-25T05:06:12.660Z,98872.68
2019-02-25T05:08:44.919Z,98868.58
2019-02-25T05:11:22.072Z,98869.74
2019-02-25T05:13:53.093Z,98869.70
2019-02-25T05:16:22.878Z,98866.44
2019-02-25T05:18:52.743Z,98865.84
2019-02-25T05:21:25.764Z,98871.80
2019-02-25T05:23:55.622Z,98865.87
2019-02-25T05:26:26.057Z,98861.92
2019-02-25T05:28:56.865Z,98865.27
2019-02-25T05:31:26.640Z,98863.58
2019-02-25T05:33:56.445Z,98864.33
2019-02-25T05:36:29.349Z,98856.84
2019-02-25T05:38:59.090Z,98857.20
2019-02-25T05:41:28.944Z,98859.37
2019-02-25T05:44:01.525Z,98854.05
2019-02-25T05:46:31.392Z,98854.86
2019-02-25T05:49:01.196Z,98859.91
2019-02-25T05:51:34.311Z,98873.01
2019-02-25T05:54:08.211Z,98860.08
2019-02-25T05:56:40.752Z,98861.46
2019-02-25T05:59:12.822Z,98867.75
2019-02-25T06:01:43.285Z,98863.79
2019-02-25T06:04:13.536Z,98859.27
2019-02-25T06:06:49.026Z,98857.31
2019-02-25T06:09:22.392Z,98863.81
2019-02-25T06:11:59.299Z,98863.86
2019-02-25T06:14:31.288Z,98871.42
2019-02-25T06:17:04.192Z,98857.35
2019-02-25T06:19:34.469Z,98856.34
2019-02-25T06:22:09.304Z,98856.34
2019-02-25T06:24:42.880Z,98859.98
2019-02-25T06:27:16.516Z,98864.56
2019-02-25T06:29:48.201Z,98869.28
2019-02-25T06:32:26.440Z,98855.34
2019-02-25T06:34:56.922Z,98858.88
2019-02-25T06:37:26.773Z,98859.15
2019-02-25T06:39:56.588Z,98860.31
2019-02-25T06:42:29.583Z,98828.70
2019-02-25T06:44:59.672Z,98857.77
2019-02-25T06:50:25.212Z,98866.77
2019-02-25T06:52:54.970Z,98868.59
2019-02-25T06:55:24.718Z,98864.47
2019-02-25T06:57:54.558Z,98871.70
2019-02-25T07:00:24.718Z,98862.80
2019-02-25T07:02:57.399Z,98856.84
2019-02-25T07:05:29.685Z,98868.39
2019-02-25T07:08:01.076Z,98868.19
2019-02-25T07:10:32.925Z,98871.05
2019-02-25T07:13:04.279Z,98870.80
2019-02-25T07:15:50.714Z,98869.19
2019-02-25T07:18:25.074Z,98878.97
2019-02-25T07:21:02.759Z,98872.39
2019-02-25T07:26:38.872Z,98857.37
2019-02-25T07:29:14.327Z,98861.19
2019-02-25T07:32:05.857Z,98861.39
2019-02-25T07:34:55.158Z,98865.11
2019-02-25T07:37:42.687Z,98858.95
2019-02-25T07:40:14.051Z,98860.84
2019-02-25T07:42:52.476Z,98865.75
2019-02-25T07:45:47.125Z,98860.48
2019-02-25T07:48:18.517Z,98859.47
2019-02-25T07:50:50.732Z,98870.95
2019-02-25T07:53:22.102Z,98873.43
2019-02-25T07:56:01.925Z,98872.97
2019-02-25T07:58:38.230Z,98873.56
2019-02-25T08:01:09.558Z,98880.51
2019-02-25T08:03:50.483Z,98879.23
2019-02-25T08:06:24.036Z,98879.68
2019-02-25T08:08:59.021Z,98877.59
2019-02-25T08:11:30.339Z,98880.25
2019-02-25T08:14:13.488Z,98877.66
2019-02-25T08:17:04.630Z,98874.85
2019-02-25T08:19:37.284Z,98891.22
2019-02-25T08:22:18.684Z,98882.42
2019-02-25T08:24:56.993Z,98877.94
2019-02-25T08:27:32.365Z,98871.25
2019-02-25T08:30:15.533Z,98863.91
2019-02-25T08:32:46.859Z,98858.63
2019-02-25T08:35:40.430Z,98855.17
2019-02-25T08:38:20.635Z,98857.34
2019-02-25T08:40:53.171Z,98857.31
2019-02-25T08:43:33.630Z,98855.21
2019-02-25T08:46:13.777Z,98847.86
2019-02-25T08:48:47.829Z,98848.34
2019-02-25T08:51:17.763Z,98850.92
2019-02-25T08:53:47.873Z,98840.02
2019-02-25T08:56:17.695Z,98844.89
2019-02-25T08:58:47.609Z,98844.43
2019-02-25T09:01:17.352Z,98845.44
2019-02-25T09:03:47.153Z,98833.50
2019-02-25T09:06:16.969Z,98829.61
2019-02-25T09:08:46.716Z,98822.53
2019-02-25T09:11:16.491Z,98817.77
2019-02-25T09:13:48.910Z,98816.66
2019-02-25T09:16:20.310Z,98813.34
2019-02-25T09:18:55.467Z,98815.35
2019-02-25T09:24:25.572Z,98802.35
2019-02-25T09:27:07.735Z,98805.63
2019-02-25T09:29:53.961Z,98802.31
2019-02-25T09:32:40.302Z,98806.59
2019-02-25T09:35:22.100Z,98800.67
2019-02-25T09:37:59.793Z,98806.03
2019-02-25T09:40:47.042Z,98800.80
2019-02-25T09:43:26.558Z,98799.14
2019-02-25T09:45:57.696Z,98797.55
2019-02-25T09:48:40.259Z,98788.98
2019-02-25T09:51:15.442Z,98805.05
2019-02-25T09:53:53.559Z,98795.69
2019-02-25T09:56:40.511Z,98798.04
2019-02-25T09:59:13.579Z,98795.58
2019-02-25T10:01:43.395Z,98795.44
2019-02-25T10:04:13.434Z,98790.52
2019-02-25T10:06:43.215Z,98794.60
2019-02-25T10:09:14.120Z,98788.48
2019-02-25T10:11:48.696Z,98791.19
2019-02-25T10:14:19.511Z,98791.84
2019-02-25T10:16:53.962Z,98777.66
2019-02-25T10:19:24.748Z,98776.71
2019-02-25T10:21:55.894Z,98772.13
2019-02-25T10:24:26.535Z,98777.09
2019-02-25T10:27:00.396Z,98774.28
2019-02-25T10:29:30.753Z,98778.53
2019-02-25T10:32:04.828Z,98766.50
2019-02-25T10:34:35.870Z,98764.34
2019-02-25T10:37:11.132Z,98762.90
2019-02-25T10:39:43.275Z,98773.92
2019-02-25T10:42:15.798Z,98761.09
2019-02-25T10:44:45.688Z,98755.88
2019-02-25T10:47:19.903Z,98750.16
2019-02-25T10:49:50.946Z,98727.95
2019-02-25T10:52:24.014Z,98725.61
2019-02-25T10:54:56.267Z,98732.75
2019-02-25T10:57:27.137Z,98730.80
2019-02-25T10:59:57.774Z,98726.59
2019-02-25T11:02:27.542Z,98715.21
2019-02-25T11:04:58.486Z,98710.08
2019-02-25T11:07:32.785Z,98716.43
2019-02-25T11:10:06.187Z,98710.55
2019-02-25T11:12:46.189Z,98700.80
2019-02-25T11:15:16.102Z,98695.22
2019-02-25T11:17:47.434Z,98701.05
2019-02-25T11:20:17.391Z,98694.62
2019-02-25T11:22:48.524Z,98694.03
2019-02-25T11:25:19.452Z,98677.16
2019-02-25T11:27:55.561Z,98671.94
2019-02-25T11:30:26.522Z,98668.08
2019-02-25T11:32:59.533Z,98672.08
2019-02-25T11:35:27.818Z,98651.55
2019-02-25T11:37:59.795Z,98656.88
2019-02-25T11:40:31.148Z,98647.43
2019-02-25T11:43:00.789Z,98652.99
2019-02-25T11:45:30.598Z,98642.98
2019-02-25T11:48:00.359Z,98642.84
2019-02-25T11:50:30.187Z,98639.81
2019-02-25T11:53:00.007Z,98646.76
2019-02-25T11:55:30.901Z,98643.80
2019-02-25T11:58:00.717Z,98615.96
2019-02-25T12:00:31.032Z,98631.45
2019-02-25T12:03:05.973Z,98630.53
2019-02-25T12:05:36.320Z,98624.97
2019-02-25T12:08:06.094Z,98625.27
2019-02-25T12:10:35.893Z,98615.86
2019-02-25T12:13:05.710Z,98613.27
2019-02-25T12:15:35.485Z,98602.17
2019-02-25T12:18:10.461Z,98599.86
2019-02-25T12:20:40.208Z,98582.20
2019-02-25T12:23:11.375Z,98572.30
2019-02-25T12:25:41.153Z,98556.12
2019-02-25T12:28:10.948Z,98541.81
2019-02-25T12:30:41.806Z,98533.41
2019-02-25T12:33:11.639Z,98522.88
2019-02-25T12:35:41.506Z,98526.86
2019-02-25T12:38:11.351Z,98521.33
2019-02-25T12:40:41.153Z,98510.77
2019-02-25T12:43:10.933Z,98501.91
2019-02-25T12:45:40.843Z,98494.23
2019-02-25T12:48:10.590Z,98494.92
2019-02-25T12:50:40.400Z,98483.77
2019-02-25T12:53:10.233Z,98475.69
2019-02-25T12:55:40.766Z,98460.16
2019-02-25T12:58:10.577Z,98472.64
2019-02-25T13:00:40.409Z,98450.95
2019-02-25T13:03:13.858Z,98459.94
2019-02-25T13:05:44.339Z,98447.78
2019-02-25T13:08:14.514Z,98451.59
2019-02-25T13:10:44.329Z,98449.89
2019-02-25T13:13:14.460Z,98442.34
2019-02-25T13:15:44.401Z,98430.03
2019-02-25T13:18:14.237Z,98436.50
2019-02-25T13:20:44.047Z,98414.86
2019-02-25T13:23:13.972Z,98419.84
2019-02-25T13:25:43.833Z,98395.86
2019-02-25T13:28:14.683Z,98406.31
2019-02-25T13:30:44.446Z,98396.45
2019-02-25T13:33:14.371Z,98396.44
2019-02-25T13:35:44.246Z,98388.03
2019-02-25T13:38:14.313Z,98371.05
2019-02-25T13:40:44.077Z,98382.20
2019-02-25T13:43:13.915Z,98392.09
2019-02-25T13:45:43.778Z,98391.08
2019-02-25T13:48:13.743Z,98387.03
2019-02-25T13:50:44.770Z,98372.63
2019-02-25T13:53:14.718Z,98360.53
2019-02-25T13:55:47.312Z,98384.78
2019-02-25T13:58:17.123Z,98398.18
2019-02-25T14:00:46.980Z,98368.69
2019-02-25T14:03:16.803Z,98372.84
2019-02-25T14:05:46.719Z,98377.37
2019-02-25T14:08:16.581Z,98375.28
2019-02-25T14:10:46.612Z,98391.72
2019-02-25T14:13:17.527Z,98377.61
2019-02-25T14:15:47.398Z,98382.80
2019-02-25T14:18:17.202Z,98364.11
2019-02-25T14:20:47.062Z,98347.47
2019-02-25T14:23:18.434Z,98320.45
2019-02-25T14:25:48.336Z,98341.17
2019-02-25T14:28:18.160Z,98353.70
2019-02-25T14:30:51.307Z,98338.56
2019-02-25T14:33:19.531Z,98355.77
2019-02-25T14:35:50.279Z,98347.55
2019-02-25T14:38:22.712Z,98345.13
2019-02-25T14:40:54.069Z,98365.79
2019-02-25T14:43:25.493Z,98345.66
2019-02-25T14:45:56.790Z,98334.03
2019-02-25T14:48:27.876Z,98336.02
2019-02-25T14:50:58.311Z,98347.01
2019-02-25T14:53:29.639Z,98352.09
2019-02-25T14:56:03.858Z,98340.25
2019-02-25T14:58:35.512Z,98335.42
2019-02-25T15:01:04.917Z,98339.30
2019-02-25T15:03:37.126Z,98309.94
2019-02-25T15:06:06.992Z,98312.39
2019-02-25T15:08:36.829Z,98273.40
2019-02-25T15:11:08.716Z,98284.13
2019-02-25T15:13:39.102Z,98269.00
2019-02-25T15:16:08.863Z,98282.58
2019-02-25T15:18:38.991Z,98290.59
2019-02-25T15:21:09.478Z,98276.15
2019-02-25T15:23:40.280Z,98275.31
2019-02-25T15:26:10.440Z,98273.49
2019-02-25T15:28:40.357Z,98285.87
2019-02-25T15:31:11.988Z,98288.17
2019-02-25T15:33:43.104Z,98293.02
2019-02-25T15:36:15.279Z,98278.25
2019-02-25T15:38:44.867Z,98277.78
2019-02-25T15:41:14.651Z,98281.35
2019-02-25T15:43:44.473Z,98282.02
2019-02-25T15:46:16.577Z,98265.83
2019-02-25T15:48:45.900Z,98262.70
2019-02-25T15:51:15.814Z,98275.55
2019-02-25T15:53:48.978Z,98253.66
2019-02-25T15:56:21.989Z,98246.45
2019-02-25T15:58:51.851Z,98243.49
2019-02-25T16:01:21.636Z,98232.58
2019-02-25T16:03:51.520Z,98195.92
2019-02-25T16:06:24.824Z,98160.50
2019-02-25T16:08:54.504Z,98228.30
2019-02-25T16:11:25.603Z,98260.70
2019-02-25T16:13:56.236Z,98300.41
2019-02-25T16:16:28.922Z,98305.95
2019-02-25T16:18:59.228Z,98294.28
2019-02-25T16:21:29.200Z,98262.55
2019-02-25T16:23:59.705Z,98230.30
2019-02-25T16:26:32.086Z,98241.66
2019-02-25T16:29:04.617Z,98285.86
2019-02-25T16:31:37.648Z,98320.02
2019-02-25T16:34:09.951Z,98297.34
2019-02-25T16:36:42.399Z,98258.12
2019-02-25T16:39:12.357Z,98276.52
2019-02-25T16:41:43.532Z,98313.53
2019-02-25T16:44:13.855Z,98297.05
2019-02-25T16:46:50.738Z,98290.17
2019-02-25T16:49:21.779Z,98308.89
2019-02-25T16:51:57.223Z,98342.83
2019-02-25T16:54:27.856Z,98313.98
2019-02-25T16:57:01.543Z,98289.53
2019-02-25T16:59:31.895Z,98274.75
2019-02-25T17:02:02.278Z,98269.22
2019-02-25T17:04:38.076Z,98271.31
2019-02-25T17:07:14.362Z,98275.55
2019-02-25T17:09:44.845Z,98297.62
2019-02-25T17:12:15.968Z,98261.77
2019-02-25T17:14:46.329Z,98269.42
2019-02-25T17:17:22.829Z,98297.25
2019-02-25T17:19:54.465Z,98311.92
2019-02-25T17:22:30.007Z,98313.43
2019-02-25T17:25:03.814Z,98310.13
2019-02-25T17:27:34.077Z,98315.61
2019-02-25T17:30:04.563Z,98332.05
2019-02-25T17:32:37.840Z,98343.39
2019-02-25T17:35:10.940Z,98360.89
2019-02-25T17:37:41.785Z,98362.72
2019-02-25T17:40:14.249Z,98381.89
2019-02-25T17:42:44.980Z,98380.25
2019-02-25T17:45:25.119Z,98393.11
2019-02-25T17:48:10.972Z,98403.06
2019-02-25T17:50:49.365Z,98409.45
2019-02-25T17:53:24.114Z,98416.23
2019-02-25T17:56:14.616Z,98421.96
2019-02-25T17:59:01.082Z,98426.70
2019-02-25T18:01:50.571Z,98435.58
2019-02-25T18:04:30.872Z,98448.03
2019-02-25T18:07:07.915Z,98452.48
2019-02-25T18:09:42.701Z,98440.48
2019-02-25T18:12:21.072Z,98456.69
2019-02-25T18:15:08.157Z,98469.91
2019-02-25T18:17:53.594Z,98473.39
2019-02-25T18:20:29.439Z,98467.84
2019-02-25T18:23:11.193Z,98464.38
2019-02-25T18:25:58.672Z,98468.80
2019-02-25T18:28:30.321Z,98468.64
2019-02-25T18:31:04.431Z,98460.70
2019-02-25T18:33:34.614Z,98476.23
2019-02-25T18:36:06.609Z,98489.17
2019-02-25T18:38:36.357Z,98472.78
2019-02-25T18:41:07.078Z,98469.64
2019-02-25T18:43:37.600Z,98497.80
2019-02-25T18:46:07.404Z,98474.55
2019-02-25T18:48:38.467Z,98492.35
2019-02-25T18:51:08.440Z,98477.10
2019-02-25T18:53:38.213Z,98479.79
2019-02-25T18:56:11.294Z,98487.69
2019-02-25T18:58:41.539Z,98507.34
2019-02-25T19:01:13.264Z,98491.84
2019-02-25T19:03:45.481Z,98503.61
2019-02-25T19:06:17.175Z,98500.42
2019-02-25T19:08:49.094Z,98511.36
2019-02-25T19:11:21.308Z,98506.42
2019-02-25T19:13:52.488Z,98513.31
2019-02-25T19:16:24.362Z,98516.33
2019-02-25T19:18:54.202Z,98510.80
2019-02-25T19:21:25.481Z,98506.48
2019-02-25T19:23:55.670Z,98510.72
2019-02-25T19:26:25.689Z,98499.84
2019-02-25T19:28:56.950Z,98500.48
2019-02-25T19:31:26.958Z,98486.70
2019-02-25T19:34:00.098Z,98490.97
2019-02-25T19:36:32.511Z,98494.32
2019-02-25T19:39:04.930Z,98478.63
2019-02-25T19:41:34.838Z,98481.11
2019-02-25T19:44:05.705Z,98493.80
2019-02-25T19:46:37.420Z,98479.16
2019-02-25T19:49:09.247Z,98471.91
2019-02-25T19:51:43.856Z,98481.52
2019-02-25T19:54:16.091Z,98483.29
2019-02-25T19:56:48.219Z,98489.55
2019-02-25T19:59:19.177Z,98491.75
2019-02-25T20:01:55.735Z,98500.10
2019-02-25T20:04:33.476Z,98507.89
2019-02-25T20:07:04.237Z,98508.94
2019-02-25T20:09:34.129Z,98497.03
2019-02-25T20:12:09.495Z,98506.71
2019-02-25T20:14:40.091Z,98511.46
2019-02-25T20:17:14.157Z,98510.92
2019-02-25T20:19:48.397Z,98512.89
2019-02-25T20:22:21.109Z,98515.53
2019-02-25T20:24:53.310Z,98521.06
2019-02-25T20:27:26.456Z,98515.18
2019-02-25T20:29:58.036Z,98523.34
2019-02-25T20:32:32.397Z,98516.59
2019-02-25T20:35:02.431Z,98514.37
2019-02-25T20:37:37.488Z,98511.66
2019-02-25T20:40:10.971Z,98518.05
2019-02-25T20:42:44.439Z,98512.75
2019-02-25T20:45:26.189Z,98511.73
2019-02-25T20:48:03.215Z,98509.77
2019-02-25T20:50:34.431Z,98514.64
2019-02-25T20:53:06.485Z,98521.33
2019-02-25T20:55:36.409Z,98518.31
2019-02-25T20:58:07.635Z,98532.41
2019-02-25T21:00:39.791Z,98534.38
2019-02-25T21:03:16.606Z,98527.59
2019-02-25T21:05:46.666Z,98525.47
2019-02-25T21:08:19.066Z,98521.81
2019-02-25T21:10:50.077Z,98535.99
2019-02-25T21:13:22.056Z,98531.88
2019-02-25T21:15:55.004Z,98529.19
2019-02-25T21:18:26.572Z,98528.78
2019-02-25T21:20:57.209Z,98523.64
2019-02-25T21:23:26.972Z,98531.81
2019-02-25T21:25:59.502Z,98522.89
2019-02-25T21:28:29.600Z,98525.37
2019-02-25T21:30:59.881Z,98524.94
2019-02-25T21:33:30.359Z,98525.20
2019-02-25T21:36:00.431Z,98519.32
2019-02-25T21:38:30.385Z,98522.36
2019-02-25T21:41:00.178Z,98524.14
2019-02-25T21:43:29.995Z,98529.22
2019-02-25T21:46:01.591Z,98522.28
2019-02-25T21:48:34.675Z,98527.34
2019-02-25T21:51:07.136Z,98530.64
2019-02-25T21:53:36.143Z,98526.67
2019-02-25T21:56:06.261Z,98525.11
2019-02-25T21:58:36.030Z,98528.53
2019-02-25T22:01:05.900Z,98534.32
2019-02-25T22:03:39.464Z,98538.46
2019-02-25T22:06:07.567Z,98538.81
2019-02-25T22:08:37.497Z,98542.68
2019-02-25T22:11:12.254Z,98536.48
2019-02-25T22:13:39.120Z,98544.86
2019-02-25T22:16:09.176Z,98543.37
2019-02-25T22:18:39.299Z,98542.36
2019-02-25T22:21:09.962Z,98549.38
2019-02-25T22:23:40.667Z,98543.42
2019-02-25T22:26:10.616Z,98541.66
2019-02-25T22:28:40.901Z,98549.76
2019-02-25T22:31:13.376Z,98553.78
2019-02-25T22:33:43.119Z,98550.05
2019-02-25T22:36:13.015Z,98549.15
2019-02-25T22:38:42.843Z,98547.83
2019-02-25T22:41:12.825Z,98550.79
2019-02-25T22:43:44.317Z,98538.10
2019-02-25T22:46:15.570Z,98544.05
2019-02-25T22:48:47.302Z,98534.70
2019-02-25T22:51:17.072Z,98538.27
2019-02-25T22:53:50.366Z,98538.37
2019-02-25T22:56:23.389Z,98545.72
2019-02-25T22:58:53.960Z,98551.03
2019-02-25T23:01:24.460Z,98550.05
2019-02-25T23:03:57.270Z,98560.16
2019-02-25T23:06:26.615Z,98548.37
2019-02-25T23:08:56.525Z,98543.08
2019-02-25T23:11:26.693Z,98544.48
2019-02-25T23:13:56.580Z,98535.37
2019-02-25T23:16:26.403Z,98532.70
2019-02-25T23:18:58.516Z,98544.05
2019-02-25T23:21:31.270Z,98532.28
2019-02-25T23:24:26.054Z,98533.30
2019-02-25T23:26:59.528Z,98533.30
2019-02-25T23:29:31.301Z,98540.46
2019-02-25T23:32:05.436Z,98540.46
2019-02-25T23:34:38.629Z,98543.14
2019-02-25T23:37:15.288Z,98543.30
2019-02-25T23:39:46.865Z,98544.05
2019-02-25T23:42:21.331Z,98551.89
2019-02-25T23:44:52.227Z,98545.00
2019-02-25T23:47:26.901Z,98550.80
2019-02-25T23:49:55.703Z,98554.06
2019-02-25T23:52:32.948Z,98551.50
2019-02-25T23:55:07.563Z,98557.89
2019-02-25T23:57:41.560Z,98563.04
